createdAt,value
2023-01-13T00:01:47.518Z,5.00
2023-01-13T00:04:14.506Z,14.27
2023-01-13T00:06:41.548Z,6.72
2023-01-13T00:09:08.720Z,7.28
2023-01-13T00:11:35.738Z,7.28
2023-01-13T00:14:04.158Z,9.15
2023-01-13T00:16:31.424Z,8.52
2023-01-13T00:18:58.418Z,9.50
2023-01-13T00:21:25.788Z,9.10
2023-01-13T00:23:54.137Z,13.07
2023-01-13T00:26:24.183Z,12.63
2023-01-13T00:28:51.503Z,11.27
2023-01-13T00:31:21.148Z,14.63
2023-01-13T00:33:48.997Z,11.52
2023-01-13T00:36:17.363Z,13.52
2023-01-13T00:38:44.769Z,11.48
2023-01-13T00:41:14.130Z,11.27
2023-01-13T00:43:41.142Z,7.55
2023-01-13T00:46:10.649Z,12.60
2023-01-13T00:48:39.215Z,9.20
2023-01-13T00:51:08.527Z,7.32
2023-01-13T00:53:37.074Z,11.85
2023-01-13T00:56:05.895Z,16.40
2023-01-13T00:58:34.499Z,9.05
2023-01-13T01:01:02.136Z,6.22
2023-01-13T01:03:29.343Z,12.68
2023-01-13T01:06:03.811Z,10.88
2023-01-13T01:08:30.945Z,12.15
2023-01-13T01:11:02.210Z,9.45
2023-01-13T01:13:29.204Z,6.07
2023-01-13T01:15:56.192Z,9.55
2023-01-13T01:18:23.273Z,9.82
2023-01-13T01:20:50.453Z,9.65
2023-01-13T01:23:18.803Z,11.02
2023-01-13T01:25:45.802Z,8.73
2023-01-13T01:28:12.788Z,9.02
2023-01-13T01:30:40.010Z,8.57
2023-01-13T01:33:07.186Z,7.47
2023-01-13T01:35:34.211Z,12.82
2023-01-13T01:38:01.218Z,6.50
2023-01-13T01:40:29.588Z,10.75
2023-01-13T01:42:56.623Z,12.88
2023-01-13T01:45:25.023Z,12.23
2023-01-13T01:47:56.739Z,12.43
2023-01-13T01:50:24.541Z,10.20
2023-01-13T01:52:56.276Z,11.20
2023-01-13T01:55:26.277Z,10.23
2023-01-13T01:58:01.339Z,9.65
2023-01-13T02:00:29.651Z,11.40
2023-01-13T02:02:58.972Z,14.07
2023-01-13T02:05:26.116Z,15.00
2023-01-13T02:07:56.801Z,11.38
2023-01-13T02:10:26.680Z,11.93
2023-01-13T02:12:58.024Z,12.13
2023-01-13T02:15:32.869Z,11.90
2023-01-13T02:18:12.029Z,11.80
2023-01-13T02:20:59.135Z,13.38
2023-01-13T02:23:56.104Z,12.65
2023-01-13T02:27:02.162Z,11.38
2023-01-13T02:29:47.802Z,11.15
2023-01-13T02:32:22.342Z,14.13
2023-01-13T02:34:56.946Z,13.80
2023-01-13T02:37:29.942Z,14.30
2023-01-13T02:40:00.695Z,9.25
2023-01-13T02:42:32.484Z,15.35
2023-01-13T02:45:07.259Z,18.10
2023-01-13T02:47:38.308Z,14.75
2023-01-13T02:50:10.183Z,12.27
2023-01-13T02:52:41.731Z,9.70
2023-01-13T02:55:14.475Z,10.90
2023-01-13T02:57:42.787Z,12.23
2023-01-13T03:00:13.465Z,11.90
2023-01-13T03:02:40.416Z,12.20
2023-01-13T03:05:07.993Z,16.30
2023-01-13T03:07:56.939Z,7.68
2023-01-13T03:10:57.229Z,12.25
2023-01-13T03:13:38.475Z,15.63
2023-01-13T03:16:14.657Z,11.32
2023-01-13T03:18:46.065Z,11.63
2023-01-13T03:21:20.419Z,14.20
2023-01-13T03:23:51.652Z,11.50
2023-01-13T03:26:24.923Z,12.65
2023-01-13T03:28:58.177Z,11.93
2023-01-13T03:31:31.346Z,9.20
2023-01-13T03:34:01.165Z,11.27
2023-01-13T03:36:30.939Z,9.25
2023-01-13T03:39:01.142Z,9.63
2023-01-13T03:41:33.598Z,11.02
2023-01-13T03:44:06.194Z,10.85
2023-01-13T03:46:41.572Z,11.73
2023-01-13T03:49:13.264Z,10.15
2023-01-13T03:51:43.117Z,6.80
2023-01-13T03:54:12.740Z,6.38
2023-01-13T03:56:42.903Z,8.10
2023-01-13T03:59:13.872Z,4.57
2023-01-13T04:01:50.484Z,9.77
2023-01-13T04:04:23.299Z,9.35
2023-01-13T04:06:56.252Z,5.28
2023-01-13T04:09:31.321Z,9.90
2023-01-13T04:12:03.743Z,9.52
2023-01-13T04:14:31.102Z,8.57
2023-01-13T04:16:59.490Z,7.30
2023-01-13T04:19:26.394Z,8.35
2023-01-13T04:21:53.339Z,6.75
2023-01-13T04:24:20.293Z,5.00
2023-01-13T04:26:47.265Z,5.85
2023-01-13T04:29:15.716Z,7.15
2023-01-13T04:31:42.825Z,4.90
2023-01-13T04:34:13.313Z,11.63
2023-01-13T04:36:40.301Z,7.53
2023-01-13T04:39:07.295Z,10.60
2023-01-13T04:41:34.269Z,6.65
2023-01-13T04:44:01.216Z,10.48
2023-01-13T04:46:28.246Z,8.82
2023-01-13T04:48:55.244Z,5.63
2023-01-13T04:51:23.552Z,7.32
2023-01-13T04:53:50.492Z,8.23
2023-01-13T04:56:17.412Z,8.57
2023-01-13T04:58:44.339Z,4.80
2023-01-13T05:01:11.296Z,10.80
2023-01-13T05:03:38.256Z,12.00
2023-01-13T05:06:05.447Z,7.40
2023-01-13T05:08:33.746Z,7.95
2023-01-13T05:11:01.049Z,9.18
2023-01-13T05:13:31.004Z,7.13
2023-01-13T05:16:00.479Z,12.27
2023-01-13T05:18:29.380Z,8.73
2023-01-13T05:20:56.354Z,15.00
2023-01-13T05:23:23.380Z,8.63
2023-01-13T05:25:51.758Z,10.90
2023-01-13T05:28:18.725Z,10.07
2023-01-13T05:30:47.341Z,6.07
2023-01-13T05:33:16.249Z,9.48
2023-01-13T05:35:45.362Z,7.63
2023-01-13T05:38:13.246Z,5.10
2023-01-13T05:40:41.034Z,6.35
2023-01-13T05:43:12.389Z,7.28
2023-01-13T05:45:39.373Z,7.88
2023-01-13T05:48:06.410Z,4.57
2023-01-13T05:50:33.340Z,8.73
2023-01-13T05:53:00.272Z,6.38
2023-01-13T05:55:27.165Z,12.48
2023-01-13T05:57:54.072Z,9.60
2023-01-13T06:00:22.735Z,11.77
2023-01-13T06:02:49.883Z,10.85
2023-01-13T06:05:17.025Z,10.70
2023-01-13T06:07:44.054Z,11.55
2023-01-13T06:10:11.713Z,11.40
2023-01-13T06:12:38.666Z,10.38
2023-01-13T06:15:06.660Z,12.05
2023-01-13T06:17:34.984Z,17.02
2023-01-13T06:20:01.880Z,15.73
2023-01-13T06:22:30.175Z,16.92
2023-01-13T06:24:57.251Z,16.27
2023-01-13T06:27:24.573Z,17.25
2023-01-13T06:29:51.513Z,17.40
2023-01-13T06:32:21.473Z,14.98
2023-01-13T06:34:56.263Z,14.60
2023-01-13T06:37:24.219Z,19.02
2023-01-13T06:39:52.181Z,16.20
2023-01-13T06:42:19.181Z,13.38
2023-01-13T06:44:46.390Z,20.00
2023-01-13T06:47:13.521Z,17.50
2023-01-13T06:49:40.443Z,15.52
2023-01-13T06:52:08.869Z,21.90
2023-01-13T06:54:35.922Z,22.38
2023-01-13T06:57:04.051Z,20.10
2023-01-13T06:59:31.024Z,11.88
2023-01-13T07:01:58.144Z,20.80
2023-01-13T07:04:25.526Z,17.10
2023-01-13T07:06:52.724Z,14.15
2023-01-13T07:09:21.090Z,12.27
2023-01-13T07:11:48.003Z,27.63
2023-01-13T07:14:15.135Z,15.00
2023-01-13T07:16:42.051Z,19.63
2023-01-13T07:19:09.055Z,21.00
2023-01-13T07:21:35.921Z,22.85
2023-01-13T07:24:02.851Z,16.83
2023-01-13T07:26:31.144Z,17.23
2023-01-13T07:28:58.210Z,17.05
2023-01-13T07:31:25.117Z,13.25
2023-01-13T07:33:52.141Z,16.13
2023-01-13T07:36:19.108Z,16.95
2023-01-13T07:38:46.035Z,16.25
2023-01-13T07:41:14.187Z,17.85
2023-01-13T07:43:42.529Z,14.13
2023-01-13T07:46:09.481Z,18.48
2023-01-13T07:48:37.294Z,17.23
2023-01-13T07:51:07.701Z,22.35
2023-01-13T07:53:35.427Z,23.42
2023-01-13T07:56:04.194Z,17.60
2023-01-13T07:58:32.464Z,16.00
2023-01-13T08:01:00.921Z,22.33
2023-01-13T08:03:28.013Z,20.38
2023-01-13T08:05:54.879Z,19.92
2023-01-13T08:08:21.888Z,21.23
2023-01-13T08:10:48.833Z,17.80
2023-01-13T08:13:17.724Z,16.55
2023-01-13T08:15:45.497Z,12.55
2023-01-13T08:18:14.277Z,15.35
2023-01-13T08:20:41.248Z,12.02
2023-01-13T08:23:08.304Z,16.10
2023-01-13T08:25:35.260Z,20.90
2023-01-13T08:28:02.134Z,17.15
2023-01-13T08:30:29.253Z,13.73
2023-01-13T08:32:56.547Z,18.23
2023-01-13T08:35:24.884Z,17.42
2023-01-13T08:37:52.254Z,22.63
2023-01-13T08:40:19.711Z,18.35
2023-01-13T08:42:48.588Z,22.15
2023-01-13T08:45:16.131Z,23.20
2023-01-13T08:47:43.048Z,22.13
2023-01-13T08:50:13.257Z,24.02
2023-01-13T08:52:41.598Z,22.38
2023-01-13T08:55:11.872Z,37.78
2023-01-13T08:57:38.831Z,19.95
2023-01-13T09:00:07.776Z,16.48
2023-01-13T09:02:34.751Z,16.17
2023-01-13T09:05:02.043Z,21.63
2023-01-13T09:07:29.198Z,17.55
2023-01-13T09:09:57.513Z,18.15
2023-01-13T09:12:24.509Z,14.80
2023-01-13T09:14:52.042Z,18.33
2023-01-13T09:17:19.064Z,18.10
2023-01-13T09:19:46.099Z,19.52
2023-01-13T09:22:15.782Z,20.80
2023-01-13T09:24:42.916Z,14.80
2023-01-13T09:27:12.432Z,16.98
2023-01-13T09:29:39.497Z,19.23
2023-01-13T09:32:07.268Z,19.83
2023-01-13T09:34:34.231Z,16.92
2023-01-13T09:37:01.787Z,23.25
2023-01-13T09:39:28.716Z,16.17
2023-01-13T09:41:58.078Z,16.98
2023-01-13T09:44:39.486Z,22.52
2023-01-13T09:47:15.491Z,10.95
2023-01-13T09:49:43.457Z,19.05
2023-01-13T09:52:14.098Z,20.50
2023-01-13T09:54:43.744Z,18.17
2023-01-13T09:57:12.392Z,17.70
2023-01-13T09:59:40.956Z,15.75
2023-01-13T10:02:37.344Z,10.00
2023-01-13T10:05:14.378Z,17.85
2023-01-13T10:07:48.416Z,16.05
2023-01-13T10:10:33.617Z,21.23
2023-01-13T10:13:01.908Z,16.77
2023-01-13T10:15:30.288Z,20.17
2023-01-13T10:18:05.361Z,15.35
2023-01-13T10:20:41.072Z,13.90
2023-01-13T10:23:23.280Z,20.83
2023-01-13T10:25:57.736Z,22.65
2023-01-13T10:28:24.809Z,21.90
2023-01-13T10:30:53.371Z,19.20
2023-01-13T10:33:23.523Z,16.92
2023-01-13T10:35:54.131Z,17.52
2023-01-13T10:38:23.952Z,18.40
2023-01-13T10:40:53.405Z,13.40
2023-01-13T10:43:20.412Z,16.48
2023-01-13T10:45:58.535Z,11.82
2023-01-13T10:48:37.120Z,18.13
2023-01-13T10:51:11.957Z,21.05
2023-01-13T10:53:46.814Z,15.23
2023-01-13T10:56:18.007Z,21.50
2023-01-13T10:58:45.402Z,18.90
2023-01-13T11:01:24.190Z,22.70
2023-01-13T11:03:51.857Z,18.65
2023-01-13T11:06:24.989Z,28.88
2023-01-13T11:08:54.190Z,17.80
2023-01-13T11:11:48.652Z,18.02
2023-01-13T11:14:21.603Z,18.60
2023-01-13T11:16:56.699Z,17.17
2023-01-13T11:19:27.466Z,16.52
2023-01-13T11:22:00.244Z,25.23
2023-01-13T11:24:34.115Z,17.63
2023-01-13T11:27:04.375Z,23.05
2023-01-13T11:29:38.188Z,20.92
2023-01-13T11:32:11.661Z,22.88
2023-01-13T11:34:41.348Z,19.73
2023-01-13T11:37:14.362Z,23.30
2023-01-13T11:39:49.215Z,19.10
2023-01-13T11:42:23.793Z,22.20
2023-01-13T11:45:00.337Z,23.05
2023-01-13T11:47:29.237Z,16.67
2023-01-13T11:49:56.478Z,25.58
2023-01-13T11:52:30.879Z,24.58
2023-01-13T11:55:23.077Z,23.70
2023-01-13T11:58:06.629Z,18.80
2023-01-13T12:00:42.446Z,25.90
2023-01-13T12:03:33.734Z,28.55
2023-01-13T12:06:18.348Z,24.10
2023-01-13T12:09:13.124Z,23.77
2023-01-13T12:11:51.439Z,27.55
2023-01-13T12:14:25.954Z,14.85
2023-01-13T12:16:53.011Z,22.95
2023-01-13T12:19:25.062Z,10.48
2023-01-13T12:22:02.863Z,20.08
2023-01-13T12:24:34.718Z,16.58
2023-01-13T12:27:05.255Z,15.55
2023-01-13T12:29:34.869Z,11.75
2023-01-13T12:32:04.970Z,11.45
2023-01-13T12:34:49.534Z,10.32
2023-01-13T12:37:24.765Z,18.00
2023-01-13T12:40:01.758Z,16.48
2023-01-13T12:42:38.331Z,20.55
2023-01-13T12:45:21.857Z,18.33
2023-01-13T12:47:49.141Z,12.65
2023-01-13T12:50:43.077Z,16.25
2023-01-13T12:53:32.798Z,18.38
2023-01-13T12:56:21.837Z,15.65
2023-01-13T12:58:48.791Z,15.70
2023-01-13T13:01:16.884Z,19.67
2023-01-13T13:04:09.409Z,15.18
2023-01-13T13:06:41.017Z,18.13
2023-01-13T13:09:19.684Z,17.92
2023-01-13T13:11:47.917Z,19.77
2023-01-13T13:14:14.905Z,17.15
2023-01-13T13:16:50.789Z,43.38
2023-01-13T13:19:42.226Z,16.27
2023-01-13T13:22:38.696Z,18.77
2023-01-13T13:25:26.179Z,13.77
2023-01-13T13:28:13.894Z,13.05
2023-01-13T13:31:03.447Z,12.20
2023-01-13T13:33:51.294Z,22.00
2023-01-13T13:36:40.626Z,18.63
2023-01-13T13:39:21.325Z,19.05
2023-01-13T13:41:52.970Z,11.98
2023-01-13T13:44:22.987Z,14.48
2023-01-13T13:46:50.471Z,9.75
2023-01-13T13:49:19.560Z,15.77
2023-01-13T13:51:52.800Z,14.82
2023-01-13T13:54:22.668Z,12.18
2023-01-13T13:56:50.905Z,14.63
2023-01-13T13:59:21.281Z,17.80
2023-01-13T14:01:52.961Z,14.55
2023-01-13T14:04:22.299Z,19.17
2023-01-13T14:06:50.753Z,17.95
2023-01-13T14:09:18.779Z,19.25
2023-01-13T14:11:57.229Z,15.05
2023-01-13T14:14:24.433Z,9.80
2023-01-13T14:16:51.906Z,13.57
2023-01-13T14:19:28.114Z,15.50
2023-01-13T14:21:55.422Z,15.15
2023-01-13T14:24:22.334Z,17.65
2023-01-13T14:26:49.354Z,17.88
2023-01-13T14:29:21.493Z,13.57
2023-01-13T14:31:49.882Z,12.63
2023-01-13T14:34:32.357Z,15.02
2023-01-13T14:37:00.261Z,12.13
2023-01-13T14:39:35.390Z,11.30
2023-01-13T14:42:02.735Z,16.45
2023-01-13T14:44:33.383Z,13.73
2023-01-13T14:47:02.607Z,9.02
2023-01-13T14:49:35.196Z,7.72
2023-01-13T14:52:16.496Z,8.95
2023-01-13T14:54:46.384Z,13.63
2023-01-13T14:57:15.831Z,17.35
2023-01-13T14:59:48.513Z,12.85
2023-01-13T15:02:46.575Z,13.70
2023-01-13T15:05:36.861Z,17.17
2023-01-13T15:08:23.006Z,16.20
2023-01-13T15:10:53.004Z,16.35
2023-01-13T15:13:27.307Z,14.85
2023-01-13T15:15:57.444Z,17.05
2023-01-13T15:18:24.515Z,20.77
2023-01-13T15:20:51.543Z,14.23
2023-01-13T15:23:19.599Z,20.08
2023-01-13T15:25:47.811Z,14.38
2023-01-13T15:28:17.791Z,22.80
2023-01-13T15:30:45.094Z,22.88
2023-01-13T15:33:14.668Z,13.52
2023-01-13T15:35:44.066Z,18.83
2023-01-13T15:38:12.600Z,18.80
2023-01-13T15:40:40.747Z,17.55
2023-01-13T15:43:13.252Z,15.82
2023-01-13T15:45:41.204Z,17.00
2023-01-13T15:48:08.268Z,23.55
2023-01-13T15:50:36.710Z,17.42
2023-01-13T15:53:04.487Z,21.98
2023-01-13T15:55:33.506Z,16.08
2023-01-13T15:58:00.541Z,21.00
2023-01-13T16:00:28.223Z,25.02
2023-01-13T16:02:55.297Z,21.80
2023-01-13T16:05:22.276Z,22.17
2023-01-13T16:07:50.631Z,19.83
2023-01-13T16:10:20.824Z,19.58
2023-01-13T16:12:47.982Z,20.38
2023-01-13T16:15:15.751Z,29.38
2023-01-13T16:17:44.226Z,16.42
2023-01-13T16:20:14.130Z,19.02
2023-01-13T16:22:41.134Z,22.65
2023-01-13T16:25:15.879Z,99.18
2023-01-13T16:27:42.883Z,17.25
2023-01-13T16:30:22.347Z,51.95
2023-01-13T16:32:49.365Z,22.17
2023-01-13T16:35:18.138Z,32.03
2023-01-13T16:37:45.199Z,24.95
2023-01-13T16:40:22.418Z,25.80
2023-01-13T16:42:49.405Z,23.88
2023-01-13T16:45:16.812Z,22.25
2023-01-13T16:47:44.019Z,18.88
2023-01-13T16:50:23.204Z,24.58
2023-01-13T16:52:50.322Z,24.23
2023-01-13T16:55:18.695Z,17.58
2023-01-13T16:57:45.766Z,24.50
2023-01-13T17:00:14.601Z,17.08
2023-01-13T17:02:41.615Z,21.60
2023-01-13T17:05:11.927Z,22.42
2023-01-13T17:07:39.704Z,20.90
2023-01-13T17:10:07.412Z,26.98
2023-01-13T17:12:35.777Z,24.02
2023-01-13T17:15:03.363Z,22.50
2023-01-13T17:17:30.505Z,17.40
2023-01-13T17:19:57.478Z,23.27
2023-01-13T17:22:24.411Z,23.83
2023-01-13T17:24:51.753Z,17.92
2023-01-13T17:27:18.714Z,25.77
2023-01-13T17:29:47.097Z,23.98
2023-01-13T17:32:17.540Z,18.30
2023-01-13T17:34:44.801Z,21.38
2023-01-13T17:37:12.115Z,30.35
2023-01-13T17:39:39.118Z,28.58
2023-01-13T17:42:06.169Z,25.92
2023-01-13T17:44:33.168Z,26.63
2023-01-13T17:47:01.620Z,27.52
2023-01-13T17:49:28.707Z,21.92
2023-01-13T17:51:55.798Z,36.72
2023-01-13T17:54:22.957Z,29.42
2023-01-13T17:56:50.129Z,32.45
2023-01-13T17:59:19.089Z,30.70
2023-01-13T18:01:46.329Z,30.45
2023-01-13T18:04:17.216Z,36.78
2023-01-13T18:06:44.689Z,40.83
2023-01-13T18:09:12.200Z,38.72
2023-01-13T18:11:39.415Z,32.30
2023-01-13T18:14:06.542Z,26.42
2023-01-13T18:16:33.532Z,35.58
2023-01-13T18:19:00.550Z,28.77
2023-01-13T18:21:29.123Z,24.23
2023-01-13T18:23:56.148Z,26.20
2023-01-13T18:26:23.122Z,26.33
2023-01-13T18:28:50.054Z,31.20
2023-01-13T18:31:17.090Z,28.77
2023-01-13T18:33:44.154Z,25.95
2023-01-13T18:36:11.694Z,32.45
2023-01-13T18:38:39.997Z,29.00
2023-01-13T18:41:07.132Z,32.35
2023-01-13T18:43:34.097Z,24.88
2023-01-13T18:46:01.156Z,30.80
2023-01-13T18:48:28.141Z,32.25
2023-01-13T18:50:55.053Z,33.30
2023-01-13T18:53:22.022Z,30.80
2023-01-13T18:55:50.287Z,33.25
2023-01-13T18:58:17.422Z,28.35
2023-01-13T19:00:44.475Z,32.05
2023-01-13T19:03:11.446Z,30.63
2023-01-13T19:05:38.397Z,27.88
2023-01-13T19:08:05.752Z,34.92
2023-01-13T19:10:32.921Z,26.80
2023-01-13T19:13:01.611Z,32.05
2023-01-13T19:15:28.737Z,26.73
2023-01-13T19:17:56.115Z,33.42
2023-01-13T19:20:23.284Z,24.45
2023-01-13T19:22:51.452Z,24.75
2023-01-13T19:25:18.488Z,37.13
2023-01-13T19:27:45.362Z,33.72
2023-01-13T19:30:14.618Z,35.75
2023-01-13T19:32:41.547Z,34.17
2023-01-13T19:35:08.930Z,26.35
2023-01-13T19:37:35.917Z,42.30
2023-01-13T19:40:03.053Z,35.92
2023-01-13T19:42:30.000Z,35.90
2023-01-13T19:44:56.991Z,28.38
2023-01-13T19:47:25.305Z,25.48
2023-01-13T19:49:52.250Z,34.83
2023-01-13T19:52:19.275Z,32.60
2023-01-13T19:54:46.797Z,36.28
2023-01-13T19:57:14.201Z,19.88
2023-01-13T19:59:41.757Z,32.20
2023-01-13T20:02:15.849Z,30.15
2023-01-13T20:04:44.184Z,32.30
2023-01-13T20:07:12.695Z,33.47
2023-01-13T20:09:40.317Z,34.50
2023-01-13T20:12:07.676Z,31.80
2023-01-13T20:14:34.614Z,27.90
2023-01-13T20:17:01.620Z,38.85
2023-01-13T20:19:28.518Z,32.05
2023-01-13T20:21:57.030Z,31.25
2023-01-13T20:24:24.065Z,24.48
2023-01-13T20:26:51.043Z,29.55
2023-01-13T20:29:17.973Z,26.45
2023-01-13T20:31:45.069Z,37.75
2023-01-13T20:34:12.123Z,32.03
2023-01-13T20:36:39.120Z,27.80
2023-01-13T20:39:07.523Z,38.28
2023-01-13T20:41:34.567Z,35.92
2023-01-13T20:44:01.579Z,35.83
2023-01-13T20:46:28.650Z,29.85
2023-01-13T20:48:55.618Z,28.50
2023-01-13T20:51:22.648Z,33.20
2023-01-13T20:53:49.595Z,36.08
2023-01-13T20:56:18.492Z,33.85
2023-01-13T20:58:45.531Z,28.88
2023-01-13T21:01:12.625Z,36.30
2023-01-13T21:03:39.683Z,31.95
2023-01-13T21:06:07.300Z,38.40
2023-01-13T21:08:34.303Z,29.13
2023-01-13T21:11:04.250Z,37.38
2023-01-13T21:13:32.917Z,24.40
2023-01-13T21:15:59.976Z,46.55
2023-01-13T21:18:26.917Z,28.15
2023-01-13T21:20:53.858Z,34.50
2023-01-13T21:23:20.808Z,36.95
2023-01-13T21:25:47.908Z,40.33
2023-01-13T21:28:14.967Z,31.75
2023-01-13T21:30:43.435Z,35.58
2023-01-13T21:33:13.533Z,33.33
2023-01-13T21:35:40.494Z,34.55
2023-01-13T21:38:07.644Z,35.65
2023-01-13T21:40:34.722Z,31.35
2023-01-13T21:43:01.701Z,42.78
2023-01-13T21:45:28.718Z,33.38
2023-01-13T21:47:57.422Z,28.17
2023-01-13T21:50:26.703Z,28.88
2023-01-13T21:52:54.322Z,35.28
2023-01-13T21:55:23.196Z,36.78
2023-01-13T21:57:51.915Z,35.53
2023-01-13T22:00:20.673Z,36.47
2023-01-13T22:02:48.361Z,38.53
2023-01-13T22:05:18.533Z,36.88
2023-01-13T22:07:46.097Z,31.27
2023-01-13T22:10:14.619Z,32.63
2023-01-13T22:12:41.653Z,30.63
2023-01-13T22:15:11.849Z,28.23
2023-01-13T22:17:39.014Z,33.47
2023-01-13T22:20:07.109Z,29.50
2023-01-13T22:22:35.645Z,23.13
2023-01-13T22:25:03.699Z,34.90
2023-01-13T22:27:30.771Z,32.90
2023-01-13T22:29:57.748Z,35.22
2023-01-13T22:32:24.931Z,32.55
2023-01-13T22:34:51.860Z,32.20
2023-01-13T22:37:18.804Z,34.47
2023-01-13T22:39:47.215Z,30.08
2023-01-13T22:42:14.244Z,27.25
2023-01-13T22:44:42.691Z,31.33
2023-01-13T22:47:09.656Z,29.50
2023-01-13T22:49:36.609Z,28.33
2023-01-13T22:52:03.885Z,28.50
2023-01-13T22:54:30.880Z,25.80
2023-01-13T22:56:59.249Z,31.17
2023-01-13T22:59:26.499Z,21.60
2023-01-13T23:01:53.474Z,31.42
2023-01-13T23:04:20.522Z,25.98
2023-01-13T23:06:47.737Z,30.02
2023-01-13T23:09:14.880Z,30.30
2023-01-13T23:11:42.154Z,32.55
2023-01-13T23:14:12.680Z,31.45
2023-01-13T23:16:40.849Z,29.25
2023-01-13T23:19:08.321Z,27.55
2023-01-13T23:21:37.230Z,29.15
2023-01-13T23:24:05.719Z,32.80
2023-01-13T23:26:33.585Z,31.83
2023-01-13T23:29:01.981Z,35.08
2023-01-13T23:31:30.488Z,33.08
2023-01-13T23:33:57.704Z,23.27
2023-01-13T23:36:26.463Z,32.35
2023-01-13T23:38:54.038Z,31.75
2023-01-13T23:41:23.194Z,35.38
2023-01-13T23:43:51.139Z,26.48
2023-01-13T23:46:18.172Z,34.35
2023-01-13T23:48:47.190Z,23.52
2023-01-13T23:51:15.059Z,22.20
2023-01-13T23:53:43.857Z,27.45
2023-01-13T23:56:12.795Z,24.10
2023-01-13T23:58:40.387Z,21.35
